首页
METAR-TAF:

METAR-TAF

机场 :

Cheboygan County Airport

Cheboygan, 密歇根州, 美国

纬度: 45-39-13N, 经度: 084-31-09W, 海拔: 195米

当前天气观测

该预报发布于20分钟前的16:56 UTC
风速13节,风向西转西南,有时为16节阵风,在南转西南西之间变化
温度 22°C
湿度 35%
气压 1020 hPa
能見度: 16.1公里
天空无云

METAR: KSLH 011656Z AUTO 24013G16KT 210V270 10SM CLR 22/06 A3011 RMK AO2 T02220057

时间: 13:16 (17:16 UTC)


TAF: 丢失

超过4000个机场的气象观测和天气预报(METAR&TAF报告)。

可查询的气象台以黄色和红色小点在地图上表示。

将鼠标移到小点上方,可查看气象台名称。

然后点击查看天气观测和预报。

如需切换地图:点击带黑十字的绿色按钮放大地图;点击带横线的绿色按钮缩小地图;或者点击绿色箭头查看邻近地区的地图。


METAR-TAF: